Time;durP1;ratioP1;P1;durP2;ratioP2;P2;SDS_P1;SDS_P2;PMS_P1;PMS_P2;Temp;Humidity;BMP_temperature;BMP_pressure;BME280_temperature;BME280_humidity;BME280_pressure;Samples;Min_cycle;Max_cycle;Signal;HPM_P1;HPM_P2
2023/08/27 00:01:42;;;;;;;1.20;1.10;;;;;16.00;95525.00;;;;5135404;27;20194;-59
2023/08/27 00:04:10;;;;;;;1.50;1.43;;;;;16.00;95498.00;;;;5135121;27;20193;-59
2023/08/27 00:06:38;;;;;;;3.60;1.80;;;;;16.10;95490.00;;;;5134622;27;20217;-59
2023/08/27 00:09:06;;;;;;;0.87;0.87;;;;;16.10;95473.00;;;;5134802;27;20193;-59
2023/08/27 00:11:34;;;;;;;1.00;1.00;;;;;16.20;95484.00;;;;5134799;27;20205;-59
2023/08/27 00:14:03;;;;;;;1.83;1.73;;;;;16.20;95489.00;;;;5135204;27;20193;-59
2023/08/27 00:16:31;;;;;;;3.33;1.83;;;;;16.20;95508.00;;;;5134711;27;20208;-59
2023/08/27 00:18:58;;;;;;;2.37;2.23;;;;;16.10;95520.00;;;;5134703;27;20567;-59
2023/08/27 00:21:26;;;;;;;1.97;1.83;;;;;15.90;95536.00;;;;5134715;27;20200;-59
2023/08/27 00:23:54;;;;;;;1.53;1.43;;;;;15.60;95547.00;;;;5134703;27;20281;-59
2023/08/27 00:26:22;;;;;;;1.43;1.33;;;;;15.60;95549.00;;;;5134650;27;20205;-60
2023/08/27 00:28:49;;;;;;;1.40;1.33;;;;;15.70;95556.00;;;;5134558;27;20217;-60
2023/08/27 00:31:16;;;;;;;1.57;1.47;;;;;15.80;95577.00;;;;5134435;27;20189;-60
2023/08/27 00:33:44;;;;;;;1.90;1.80;;;;;15.70;95590.00;;;;5134406;27;20337;-59
2023/08/27 00:36:12;;;;;;;1.50;1.40;;;;;15.70;95579.00;;;;5134377;27;20216;-59
2023/08/27 00:38:39;;;;;;;2.30;1.67;;;;;15.70;95576.00;;;;5134325;27;20260;-59
2023/08/27 00:41:08;;;;;;;1.57;1.53;;;;;15.70;95576.00;;;;5134489;27;20216;-59
2023/08/27 00:43:36;;;;;;;1.63;1.53;;;;;15.70;95583.00;;;;5134319;27;20193;-59
2023/08/27 00:46:05;;;;;;;1.60;1.50;;;;;15.70;95576.00;;;;5132879;27;20217;-59
2023/08/27 00:48:33;;;;;;;1.20;1.20;;;;;15.70;95579.00;;;;5134683;27;20259;-59
2023/08/27 00:51:01;;;;;;;1.80;1.70;;;;;15.70;95568.00;;;;5134122;27;20189;-59
2023/08/27 00:53:28;;;;;;;1.83;1.07;;;;;15.80;95560.00;;;;5134742;27;20194;-59
2023/08/27 00:55:56;;;;;;;3.37;1.60;;;;;15.80;95553.00;;;;5134334;27;20185;-60
2023/08/27 00:58:24;;;;;;;1.10;1.10;;;;;15.90;95546.00;;;;5134652;28;20192;-60
2023/08/27 01:00:52;;;;;;;1.83;1.73;;;;;15.90;95536.00;;;;5134081;28;20185;-60
2023/08/27 01:03:19;;;;;;;1.83;1.73;;;;;15.80;95515.00;;;;5135579;27;20196;-60
2023/08/27 01:05:47;;;;;;;2.30;1.63;;;;;15.80;95514.00;;;;5138210;27;20197;-60
2023/08/27 01:08:22;;;;;;;1.63;1.53;;;;;15.90;95530.00;;;;5136869;27;20709;-59
2023/08/27 01:10:58;;;;;;;2.50;2.33;;;;;16.00;95531.00;;;;5138444;27;20218;-59
2023/08/27 01:13:35;;;;;;;1.23;1.23;;;;;16.00;95532.00;;;;5138755;27;20184;-60
2023/08/27 01:16:04;;;;;;;0.90;0.90;;;;;16.10;95547.00;;;;5138815;27;20559;-59
2023/08/27 01:18:33;;;;;;;1.10;1.10;;;;;16.20;95552.00;;;;5136798;27;20660;-59
2023/08/27 01:21:15;;;;;;;1.07;1.07;;;;;16.10;95540.00;;;;5138159;27;20189;-59
2023/08/27 01:23:44;;;;;;;1.10;1.10;;;;;15.90;95529.00;;;;5138238;27;20174;-59
2023/08/27 01:26:12;;;;;;;1.20;1.20;;;;;15.80;95530.00;;;;5137959;27;20287;-60
2023/08/27 01:28:45;;;;;;;1.80;1.70;;;;;15.90;95533.00;;;;5137837;27;20212;-60
2023/08/27 01:31:17;;;;;;;4.07;2.43;;;;;15.90;95516.00;;;;5138456;27;20234;-60
2023/08/27 01:33:46;;;;;;;1.03;1.03;;;;;15.90;95508.00;;;;5137872;27;20170;-60
2023/08/27 01:36:16;;;;;;;1.70;1.40;;;;;16.00;95512.00;;;;5137808;27;20233;-60
2023/08/27 01:38:44;;;;;;;1.00;1.00;;;;;16.00;95503.00;;;;5137643;27;20189;-60
2023/08/27 01:41:11;;;;;;;1.37;1.27;;;;;16.10;95492.00;;;;5138274;27;20189;-60
2023/08/27 01:43:38;;;;;;;1.73;1.63;;;;;16.10;95470.00;;;;5137683;27;20194;-60
2023/08/27 01:46:06;;;;;;;3.20;1.33;;;;;16.10;95477.00;;;;5137574;27;20213;-59
2023/08/27 01:48:33;;;;;;;1.93;1.83;;;;;16.10;95492.00;;;;5138316;27;20209;-59
2023/08/27 01:51:00;;;;;;;1.30;1.20;;;;;16.10;95508.00;;;;5137833;27;20652;-59
2023/08/27 01:53:29;;;;;;;4.13;1.90;;;;;16.00;95506.00;;;;5137573;27;20198;-59
2023/08/27 01:55:56;;;;;;;1.53;1.20;;;;;16.00;95519.00;;;;5138042;27;20586;-59
2023/08/27 01:58:24;;;;;;;2.50;1.70;;;;;16.20;95525.00;;;;5137886;27;20660;-59
2023/08/27 02:00:51;;;;;;;2.07;1.97;;;;;16.00;95518.00;;;;5137344;27;20230;-59
2023/08/27 02:03:18;;;;;;;1.57;1.47;;;;;15.90;95515.00;;;;5137235;27;20193;-59
2023/08/27 02:05:48;;;;;;;1.03;1.03;;;;;16.00;95505.00;;;;5137391;27;20212;-59
2023/08/27 02:08:16;;;;;;;1.00;1.00;;;;;15.90;95512.00;;;;5137049;27;20209;-60
2023/08/27 02:10:44;;;;;;;1.23;1.23;;;;;15.90;95500.00;;;;5137235;27;20227;-60
2023/08/27 02:13:12;;;;;;;1.67;1.57;;;;;15.90;95480.00;;;;5136996;27;20193;-60
2023/08/27 02:15:39;;;;;;;1.17;1.17;;;;;15.90;95476.00;;;;5136542;27;20659;-60
2023/08/27 02:18:07;;;;;;;1.10;1.10;;;;;15.90;95470.00;;;;5136858;27;20185;-60
2023/08/27 02:20:34;;;;;;;1.57;1.47;;;;;16.00;95474.00;;;;5137255;27;20263;-60
2023/08/27 02:23:01;;;;;;;1.87;1.77;;;;;16.00;95488.00;;;;5137262;27;20201;-60
2023/08/27 02:25:29;;;;;;;1.70;1.60;;;;;16.00;95486.00;;;;5136912;27;20198;-60
2023/08/27 02:27:57;;;;;;;1.37;1.33;;;;;16.00;95479.00;;;;5136666;27;20723;-59
2023/08/27 02:30:25;;;;;;;2.17;1.77;;;;;16.00;95483.00;;;;5136753;27;20586;-60
2023/08/27 02:32:52;;;;;;;1.10;1.10;;;;;15.90;95506.00;;;;5137070;27;20684;-59
2023/08/27 02:35:19;;;;;;;1.03;1.03;;;;;15.90;95517.00;;;;5136810;27;20190;-59
2023/08/27 02:37:47;;;;;;;1.57;1.47;;;;;15.90;95493.00;;;;5137059;27;20572;-59
2023/08/27 02:40:16;;;;;;;1.60;1.50;;;;;15.90;95491.00;;;;5136599;27;20190;-59
2023/08/27 02:42:44;;;;;;;1.43;1.43;;;;;15.90;95500.00;;;;5136644;27;20197;-59
2023/08/27 02:45:12;;;;;;;3.27;1.90;;;;;15.90;95503.00;;;;5136523;27;20182;-59
2023/08/27 02:47:40;;;;;;;1.70;1.60;;;;;16.00;95489.00;;;;5136285;27;20209;-59
2023/08/27 02:50:08;;;;;;;1.20;1.20;;;;;16.10;95486.00;;;;5136563;27;20212;-60
2023/08/27 02:52:36;;;;;;;2.93;1.37;;;;;16.00;95489.00;;;;5136297;27;20193;-60
2023/08/27 02:55:03;;;;;;;1.57;1.47;;;;;16.00;95500.00;;;;5136052;27;20185;-60
2023/08/27 02:57:30;;;;;;;0.70;0.70;;;;;16.00;95493.00;;;;5136193;27;20209;-60
2023/08/27 02:59:58;;;;;;;1.13;1.13;;;;;16.00;95488.00;;;;5136410;27;20205;-60
2023/08/27 03:02:26;;;;;;;1.30;1.20;;;;;16.00;95478.00;;;;5136079;27;20185;-60
2023/08/27 03:04:55;;;;;;;0.70;0.70;;;;;16.00;95479.00;;;;5136070;27;20201;-60
2023/08/27 03:07:23;;;;;;;1.07;1.07;;;;;16.00;95476.00;;;;5136539;27;20214;-60
2023/08/27 03:09:50;;;;;;;0.70;0.70;;;;;16.00;95464.00;;;;5135730;27;20205;-60
2023/08/27 03:12:17;;;;;;;1.03;1.03;;;;;16.10;95464.00;;;;5135814;27;20190;-60
2023/08/27 03:14:45;;;;;;;0.67;0.67;;;;;16.10;95470.00;;;;5135683;27;20653;-60
2023/08/27 03:17:12;;;;;;;1.20;1.20;;;;;16.10;95479.00;;;;5135727;27;20213;-60
2023/08/27 03:19:41;;;;;;;1.00;1.00;;;;;16.10;95485.00;;;;5135830;27;20189;-60
2023/08/27 03:22:09;;;;;;;6.90;1.50;;;;;16.10;95488.00;;;;5135593;27;20198;-60
2023/08/27 03:24:36;;;;;;;1.60;1.50;;;;;16.10;95478.00;;;;5135586;27;20276;-60
2023/08/27 03:27:04;;;;;;;0.83;0.83;;;;;16.10;95480.00;;;;5134515;27;20213;-60
2023/08/27 03:29:31;;;;;;;1.00;1.00;;;;;16.00;95464.00;;;;5135396;27;20210;-60
2023/08/27 03:31:59;;;;;;;1.00;0.97;;;;;16.00;95459.00;;;;5135405;27;20246;-60
2023/08/27 03:34:26;;;;;;;0.93;0.93;;;;;16.10;95437.00;;;;5135947;27;20193;-60
2023/08/27 03:36:55;;;;;;;1.37;1.23;;;;;16.10;95437.00;;;;5135389;27;20259;-59
2023/08/27 03:39:22;;;;;;;1.83;1.73;;;;;16.10;95444.00;;;;5135073;27;20254;-59
2023/08/27 03:41:49;;;;;;;0.90;0.90;;;;;16.10;95432.00;;;;5135168;27;20563;-59
2023/08/27 03:44:17;;;;;;;0.80;0.80;;;;;16.10;95434.00;;;;5135407;27;20194;-59
2023/08/27 03:46:44;;;;;;;1.40;1.40;;;;;16.10;95441.00;;;;5135057;27;20262;-59
2023/08/27 03:49:12;;;;;;;1.03;1.03;;;;;16.00;95446.00;;;;5134922;27;20217;-59
2023/08/27 03:51:39;;;;;;;1.30;1.20;;;;;16.10;95453.00;;;;5135066;27;20653;-59
2023/08/27 03:54:08;;;;;;;1.03;1.03;;;;;16.00;95442.00;;;;5135144;27;20279;-59
2023/08/27 03:56:36;;;;;;;2.33;2.13;;;;;15.90;95446.00;;;;5134973;27;20249;-59
2023/08/27 03:59:03;;;;;;;1.53;1.43;;;;;16.00;95449.00;;;;5135166;27;20238;-59
2023/08/27 04:01:31;;;;;;;1.20;1.20;;;;;15.90;95439.00;;;;5135014;27;20235;-59
2023/08/27 04:03:58;;;;;;;0.73;0.73;;;;;16.00;95432.00;;;;5134713;27;20197;-59
2023/08/27 04:06:26;;;;;;;3.80;2.07;;;;;16.10;95425.00;;;;5134868;27;20213;-60
2023/08/27 04:08:53;;;;;;;0.83;0.83;;;;;16.10;95439.00;;;;5134757;27;20213;-59
2023/08/27 04:11:22;;;;;;;1.53;1.43;;;;;16.10;95438.00;;;;5134842;27;20569;-59
2023/08/27 04:13:49;;;;;;;1.33;1.27;;;;;16.00;95441.00;;;;5133274;27;20250;-60
2023/08/27 04:16:17;;;;;;;1.53;1.53;;;;;16.00;95407.00;;;;5134570;27;20213;-60
2023/08/27 04:18:44;;;;;;;1.27;1.27;;;;;16.00;95411.00;;;;5134585;27;20186;-59
2023/08/27 04:21:11;;;;;;;1.23;1.03;;;;;15.90;95429.00;;;;5134974;27;20194;-59
2023/08/27 04:23:39;;;;;;;1.00;1.00;;;;;16.00;95413.00;;;;5134813;27;20193;-59
2023/08/27 04:26:06;;;;;;;1.10;1.10;;;;;16.00;95413.00;;;;5134461;27;20213;-59
2023/08/27 04:28:36;;;;;;;1.00;1.00;;;;;16.00;95414.00;;;;5134486;27;20221;-59
2023/08/27 04:31:04;;;;;;;1.37;1.20;;;;;15.90;95403.00;;;;5134469;27;20184;-59
2023/08/27 04:33:31;;;;;;;1.03;1.03;;;;;16.10;95422.00;;;;5134421;27;20185;-59
2023/08/27 04:35:58;;;;;;;1.07;1.07;;;;;16.10;95421.00;;;;5134779;27;20718;-59
2023/08/27 04:38:26;;;;;;;1.53;1.43;;;;;16.00;95422.00;;;;5134264;27;20185;-59
2023/08/27 04:40:54;;;;;;;1.57;1.47;;;;;16.00;95426.00;;;;5132862;27;20197;-59
2023/08/27 04:43:21;;;;;;;0.93;0.93;;;;;15.90;95420.00;;;;5134861;27;20272;-60
2023/08/27 04:45:50;;;;;;;1.00;1.00;;;;;15.90;95427.00;;;;5134134;27;20571;-60
2023/08/27 04:48:17;;;;;;;0.67;0.67;;;;;15.90;95415.00;;;;5132718;27;20197;-59
2023/08/27 04:50:45;;;;;;;4.27;1.67;;;;;15.80;95416.00;;;;5134038;27;20193;-59
2023/08/27 04:53:13;;;;;;;0.97;0.97;;;;;15.80;95409.00;;;;5134087;27;20224;-59
2023/08/27 04:55:41;;;;;;;0.70;0.70;;;;;15.70;95424.00;;;;5133873;27;20245;-59
2023/08/27 04:58:08;;;;;;;1.07;1.07;;;;;15.60;95427.00;;;;5134184;28;20189;-59
2023/08/27 05:00:36;;;;;;;1.37;1.33;;;;;15.50;95438.00;;;;5133937;28;20272;-59
2023/08/27 05:03:05;;;;;;;1.20;1.20;;;;;15.50;95439.00;;;;5134207;28;20212;-59
2023/08/27 05:05:32;;;;;;;1.30;1.30;;;;;15.60;95451.00;;;;5134247;28;20257;-59
2023/08/27 05:07:59;;;;;;;1.03;1.03;;;;;15.60;95444.00;;;;5134060;28;20213;-59
2023/08/27 05:10:27;;;;;;;6.67;1.17;;;;;15.60;95445.00;;;;5132378;28;20714;-60
2023/08/27 05:12:54;;;;;;;0.53;0.53;;;;;15.70;95444.00;;;;5134424;28;20202;-59
2023/08/27 05:15:22;;;;;;;0.83;0.83;;;;;15.70;95444.00;;;;5134022;28;20569;-59
2023/08/27 05:17:49;;;;;;;1.03;1.03;;;;;15.90;95443.00;;;;5134044;28;20262;-59
2023/08/27 05:20:18;;;;;;;1.20;1.20;;;;;15.80;95434.00;;;;5133814;28;20196;-59
2023/08/27 05:22:45;;;;;;;0.90;0.90;;;;;15.70;95432.00;;;;5133764;28;20204;-60
2023/08/27 05:25:13;;;;;;;1.43;1.33;;;;;15.60;95432.00;;;;5133767;28;20188;-60
2023/08/27 05:27:44;;;;;;;0.57;0.57;;;;;15.70;95424.00;;;;5133616;28;20707;-59
2023/08/27 05:30:13;;;;;;;0.83;0.83;;;;;15.70;95408.00;;;;5133713;28;20228;-59
2023/08/27 05:32:41;;;;;;;1.30;1.30;;;;;15.70;95417.00;;;;5133789;27;20193;-59
2023/08/27 05:35:09;;;;;;;1.37;1.30;;;;;15.80;95439.00;;;;5133625;28;20197;-59
2023/08/27 05:37:38;;;;;;;0.70;0.70;;;;;15.90;95444.00;;;;5133592;28;20205;-59
2023/08/27 05:40:08;;;;;;;0.87;0.87;;;;;15.90;95441.00;;;;5133799;28;20188;-59
2023/08/27 05:42:36;;;;;;;1.37;1.27;;;;;15.90;95445.00;;;;5133915;28;20213;-59
2023/08/27 05:45:04;;;;;;;0.73;0.73;;;;;15.80;95443.00;;;;5133638;28;20696;-60
2023/08/27 05:47:31;;;;;;;1.07;1.07;;;;;15.90;95436.00;;;;5133758;28;20290;-59
2023/08/27 05:49:59;;;;;;;1.03;1.03;;;;;15.90;95431.00;;;;5135866;27;20213;-59
2023/08/27 05:52:26;;;;;;;1.03;0.93;;;;;16.10;95438.00;;;;5137413;27;20320;-60
2023/08/27 05:54:55;;;;;;;0.73;0.73;;;;;16.10;95440.00;;;;5137268;27;20530;-60
2023/08/27 05:57:23;;;;;;;0.90;0.90;;;;;16.10;95446.00;;;;5135974;27;20213;-60
2023/08/27 05:59:50;;;;;;;1.93;1.00;;;;;16.00;95438.00;;;;5137808;27;20752;-59
2023/08/27 06:02:17;;;;;;;0.80;0.80;;;;;16.00;95431.00;;;;5137338;27;20189;-59
2023/08/27 06:04:45;;;;;;;1.07;0.97;;;;;16.10;95432.00;;;;5137598;27;20206;-59
2023/08/27 06:07:13;;;;;;;0.90;0.90;;;;;16.00;95423.00;;;;5136878;27;20205;-59
2023/08/27 06:09:40;;;;;;;0.73;0.73;;;;;16.00;95408.00;;;;5137136;27;20221;-60
2023/08/27 06:12:09;;;;;;;1.00;1.00;;;;;15.90;95404.00;;;;5135755;27;20288;-60
2023/08/27 06:14:37;;;;;;;0.87;0.87;;;;;16.10;95399.00;;;;5137031;27;20193;-59
2023/08/27 06:17:04;;;;;;;0.63;0.63;;;;;16.10;95400.00;;;;5137025;27;20550;-60
2023/08/27 06:19:32;;;;;;;0.77;0.77;;;;;16.20;95406.00;;;;5136816;27;20185;-60
2023/08/27 06:21:59;;;;;;;1.20;1.10;;;;;16.30;95410.00;;;;5136930;27;20201;-60
2023/08/27 06:24:26;;;;;;;1.00;1.00;;;;;16.10;95423.00;;;;5136915;27;20185;-60
2023/08/27 06:26:53;;;;;;;0.70;0.70;;;;;16.20;95435.00;;;;5137038;27;20212;-60
2023/08/27 06:29:22;;;;;;;0.83;0.83;;;;;16.20;95441.00;;;;5136993;27;20209;-59
2023/08/27 06:31:50;;;;;;;0.70;0.70;;;;;16.10;95448.00;;;;5137751;27;20520;-59
2023/08/27 06:34:17;;;;;;;0.73;0.73;;;;;16.10;95452.00;;;;5137118;27;20186;-59
2023/08/27 06:36:44;;;;;;;0.60;0.60;;;;;16.10;95444.00;;;;5137144;27;20209;-59
2023/08/27 06:39:12;;;;;;;0.53;0.53;;;;;15.90;95450.00;;;;5136751;27;20652;-59
2023/08/27 06:41:39;;;;;;;11.00;1.43;;;;;16.10;95461.00;;;;5136507;27;20193;-59
2023/08/27 06:44:07;;;;;;;0.57;0.57;;;;;16.10;95463.00;;;;5136637;27;20189;-59
2023/08/27 06:46:36;;;;;;;1.20;1.20;;;;;16.30;95473.00;;;;5136210;27;20210;-59
2023/08/27 06:49:03;;;;;;;1.10;1.10;;;;;16.00;95463.00;;;;5136396;27;20209;-59
2023/08/27 06:51:30;;;;;;;0.63;0.63;;;;;15.80;95447.00;;;;5136176;27;20196;-59
2023/08/27 06:53:58;;;;;;;2.13;1.77;;;;;15.90;95434.00;;;;5136262;27;20186;-59
2023/08/27 06:56:26;;;;;;;1.20;1.10;;;;;16.10;95425.00;;;;5136138;27;20220;-59
2023/08/27 06:58:54;;;;;;;0.77;0.77;;;;;16.30;95428.00;;;;5134839;27;20231;-59
2023/08/27 07:01:21;;;;;;;0.50;0.50;;;;;16.40;95418.00;;;;5136262;27;20200;-59
2023/08/27 07:03:50;;;;;;;0.80;0.80;;;;;16.60;95404.00;;;;5136171;27;20288;-59
2023/08/27 07:06:17;;;;;;;0.80;0.80;;;;;16.70;95407.00;;;;5136413;27;20213;-60
2023/08/27 07:08:44;;;;;;;0.80;0.80;;;;;16.90;95404.00;;;;5136531;27;20189;-59
2023/08/27 07:11:12;;;;;;;1.20;1.10;;;;;16.90;95402.00;;;;5135883;27;20212;-60
2023/08/27 07:13:40;;;;;;;0.57;0.57;;;;;17.00;95404.00;;;;5136071;27;20200;-60
2023/08/27 07:16:07;;;;;;;1.20;1.10;;;;;17.00;95396.00;;;;5135747;27;20209;-60
2023/08/27 07:18:34;;;;;;;1.07;1.00;;;;;17.00;95402.00;;;;5136138;27;20197;-60
2023/08/27 07:21:03;;;;;;;0.83;0.83;;;;;17.10;95404.00;;;;5135722;27;20194;-59
2023/08/27 07:23:31;;;;;;;1.00;1.00;;;;;17.00;95404.00;;;;5136120;27;20193;-60
2023/08/27 07:25:58;;;;;;;0.87;0.87;;;;;17.10;95410.00;;;;5135560;27;20192;-60
2023/08/27 07:28:25;;;;;;;1.23;1.13;;;;;17.30;95413.00;;;;5135607;27;20196;-60
2023/08/27 07:30:53;;;;;;;1.07;1.07;;;;;17.40;95420.00;;;;5136064;27;20216;-60
2023/08/27 07:33:20;;;;;;;0.70;0.70;;;;;17.40;95431.00;;;;5135692;27;20561;-60
2023/08/27 07:35:48;;;;;;;0.73;0.73;;;;;17.30;95435.00;;;;5135523;27;20570;-59
2023/08/27 07:38:16;;;;;;;0.63;0.63;;;;;17.00;95446.00;;;;5135733;27;20193;-59
2023/08/27 07:40:44;;;;;;;0.80;0.80;;;;;17.20;95440.00;;;;5135567;27;20224;-60
2023/08/27 07:43:11;;;;;;;1.33;1.23;;;;;17.30;95448.00;;;;5135309;27;20325;-59
2023/08/27 07:45:39;;;;;;;0.70;0.70;;;;;16.90;95450.00;;;;5135111;27;20193;-59
2023/08/27 07:48:06;;;;;;;0.67;0.67;;;;;17.10;95453.00;;;;5135262;27;20193;-59
2023/08/27 07:50:34;;;;;;;2.23;0.93;;;;;17.10;95468.00;;;;5134938;27;20225;-59
2023/08/27 07:53:01;;;;;;;0.50;0.50;;;;;17.20;95470.00;;;;5135501;27;20600;-59
2023/08/27 07:55:31;;;;;;;3.67;1.67;;;;;17.20;95479.00;;;;5135241;27;20198;-59
2023/08/27 07:57:58;;;;;;;0.70;0.70;;;;;16.90;95489.00;;;;5135572;27;20201;-59
2023/08/27 08:00:26;;;;;;;0.93;0.93;;;;;16.70;95485.00;;;;5135105;27;20186;-59
2023/08/27 08:02:54;;;;;;;1.07;1.07;;;;;16.60;95493.00;;;;5134955;27;20185;-59
2023/08/27 08:05:21;;;;;;;0.80;0.80;;;;;16.70;95491.00;;;;5133677;27;20638;-59
2023/08/27 08:07:49;;;;;;;0.43;0.43;;;;;16.60;95509.00;;;;5135086;27;20217;-59
2023/08/27 08:10:17;;;;;;;0.70;0.70;;;;;16.60;95513.00;;;;5134787;27;20252;-59
2023/08/27 08:12:46;;;;;;;0.63;0.63;;;;;17.00;95510.00;;;;5134492;27;20190;-61
2023/08/27 08:15:14;;;;;;;1.03;1.03;;;;;17.00;95503.00;;;;5135212;27;20189;-60
2023/08/27 08:17:41;;;;;;;0.57;0.57;;;;;17.10;95500.00;;;;5135041;27;20706;-60
2023/08/27 08:20:09;;;;;;;0.70;0.70;;;;;17.10;95486.00;;;;5135079;27;20196;-60
2023/08/27 08:22:37;;;;;;;0.83;0.83;;;;;17.30;95505.00;;;;5134830;27;20197;-60
2023/08/27 08:25:05;;;;;;;0.70;0.70;;;;;17.10;95504.00;;;;5134968;27;20185;-60
2023/08/27 08:27:32;;;;;;;0.60;0.60;;;;;17.20;95500.00;;;;5134986;27;20209;-59
2023/08/27 08:30:03;;;;;;;7.60;1.27;;;;;17.10;95488.00;;;;5135151;27;20262;-60
2023/08/27 08:32:30;;;;;;;0.70;0.70;;;;;17.20;95484.00;;;;5134618;27;20177;-60
2023/08/27 08:34:58;;;;;;;0.60;0.60;;;;;17.20;95475.00;;;;5134331;27;20246;-59
2023/08/27 08:37:26;;;;;;;0.50;0.50;;;;;17.20;95484.00;;;;5134543;27;20709;-60
2023/08/27 08:39:53;;;;;;;0.57;0.57;;;;;17.10;95497.00;;;;5134391;27;20189;-59
2023/08/27 08:42:27;;;;;;;0.77;0.77;;;;;17.20;95500.00;;;;5134326;27;20664;-59
2023/08/27 08:45:05;;;;;;;0.53;0.53;;;;;17.20;95500.00;;;;5133633;27;20629;-59
2023/08/27 08:47:37;;;;;;;0.77;0.77;;;;;17.50;95503.00;;;;5134094;27;20692;-59
2023/08/27 08:50:08;;;;;;;0.90;0.90;;;;;17.50;95511.00;;;;5134295;27;20620;-59
2023/08/27 08:52:39;;;;;;;0.70;0.70;;;;;17.60;95511.00;;;;5134122;27;20188;-60
2023/08/27 08:55:09;;;;;;;0.73;0.73;;;;;17.60;95516.00;;;;5134070;27;20661;-59
2023/08/27 08:57:39;;;;;;;0.40;0.40;;;;;17.40;95513.00;;;;5134026;27;20680;-59
2023/08/27 09:00:11;;;;;;;0.50;0.50;;;;;17.70;95504.00;;;;5134198;28;20191;-59
2023/08/27 09:02:41;;;;;;;0.70;0.70;;;;;17.80;95505.00;;;;5134540;28;20181;-59
2023/08/27 09:05:10;;;;;;;0.87;0.87;;;;;18.00;95505.00;;;;5133658;28;20202;-59
2023/08/27 09:07:39;;;;;;;2.53;1.60;;;;;18.10;95490.00;;;;5133895;28;20209;-59
2023/08/27 09:10:09;;;;;;;0.77;0.77;;;;;18.40;95476.00;;;;5132580;28;20237;-60
2023/08/27 09:12:40;;;;;;;0.40;0.40;;;;;18.70;95470.00;;;;5133688;28;20193;-60
2023/08/27 09:15:09;;;;;;;0.43;0.43;;;;;19.10;95464.00;;;;5134282;27;20521;-61
2023/08/27 09:17:36;;;;;;;0.60;0.60;;;;;19.30;95461.00;;;;5133674;28;20213;-60
2023/08/27 09:20:07;;;;;;;0.60;0.60;;;;;19.70;95453.00;;;;5133664;28;20186;-60
2023/08/27 09:22:35;;;;;;;1.70;1.07;;;;;19.40;95451.00;;;;5133796;28;20260;-60
2023/08/27 09:25:03;;;;;;;0.50;0.50;;;;;19.80;95439.00;;;;5136407;27;20196;-60
2023/08/27 09:27:31;;;;;;;0.50;0.50;;;;;20.20;95446.00;;;;5137980;27;20337;-60
2023/08/27 09:30:00;;;;;;;0.60;0.60;;;;;20.10;95450.00;;;;5137996;27;20668;-60
2023/08/27 09:32:28;;;;;;;0.70;0.70;;;;;19.40;95461.00;;;;5137756;27;20661;-59
2023/08/27 09:34:59;;;;;;;0.60;0.60;;;;;19.30;95459.00;;;;5137602;27;20268;-59
2023/08/27 09:37:37;;;;;;;0.93;0.93;;;;;19.50;95464.00;;;;5136330;27;20240;-59
2023/08/27 09:40:07;;;;;;;0.77;0.77;;;;;19.50;95465.00;;;;5137865;27;20184;-59
2023/08/27 09:42:35;;;;;;;0.50;0.50;;;;;19.10;95452.00;;;;5137417;27;20276;-59
2023/08/27 09:45:02;;;;;;;0.73;0.73;;;;;19.20;95453.00;;;;5137496;27;20201;-59
2023/08/27 09:47:33;;;;;;;0.43;0.43;;;;;19.10;95464.00;;;;5137792;27;20204;-59
2023/08/27 09:50:04;;;;;;;0.80;0.80;;;;;19.10;95469.00;;;;5137244;27;20296;-59
2023/08/27 09:52:33;;;;;;;0.57;0.57;;;;;19.00;95473.00;;;;5137316;27;20184;-59
2023/08/27 09:55:02;;;;;;;0.80;0.80;;;;;19.30;95463.00;;;;5137316;27;20193;-59
2023/08/27 09:57:31;;;;;;;1.27;1.17;;;;;19.40;95461.00;;;;5137431;27;20319;-59
2023/08/27 09:59:58;;;;;;;0.67;0.67;;;;;19.60;95460.00;;;;5137208;27;20190;-60
2023/08/27 10:02:26;;;;;;;0.73;0.73;;;;;19.70;95463.00;;;;5137101;27;20197;-60
2023/08/27 10:04:56;;;;;;;0.47;0.47;;;;;19.60;95463.00;;;;5136962;27;20197;-60
2023/08/27 10:07:23;;;;;;;0.40;0.40;;;;;20.00;95462.00;;;;5137086;27;20215;-60
2023/08/27 10:09:54;;;;;;;0.50;0.50;;;;;20.00;95469.00;;;;5136889;27;20672;-60
2023/08/27 10:12:22;;;;;;;1.10;1.10;;;;;20.30;95464.00;;;;5136417;27;20542;-60
2023/08/27 10:14:50;;;;;;;0.60;0.60;;;;;20.80;95463.00;;;;5136818;27;20238;-59
2023/08/27 10:17:18;;;;;;;0.77;0.77;;;;;20.60;95454.00;;;;5136835;27;20209;-60
2023/08/27 10:19:45;;;;;;;0.83;0.83;;;;;21.00;95440.00;;;;5136744;27;20185;-60
2023/08/27 10:22:14;;;;;;;0.60;0.60;;;;;20.60;95446.00;;;;5136826;27;20664;-60
2023/08/27 10:24:42;;;;;;;0.73;0.73;;;;;20.50;95446.00;;;;5136728;27;20664;-60
2023/08/27 10:27:10;;;;;;;0.50;0.50;;;;;20.90;95449.00;;;;5136704;27;20205;-60
2023/08/27 10:29:40;;;;;;;0.67;0.67;;;;;21.00;95462.00;;;;5136606;27;20204;-60
2023/08/27 10:32:08;;;;;;;0.70;0.70;;;;;20.90;95465.00;;;;5135092;27;20684;-60
2023/08/27 10:34:36;;;;;;;0.90;0.90;;;;;20.70;95461.00;;;;5136334;27;20295;-59
2023/08/27 10:37:09;;;;;;;2.33;1.23;;;;;20.50;95446.00;;;;5136429;27;20220;-59
2023/08/27 10:39:37;;;;;;;1.03;1.03;;;;;20.50;95452.00;;;;5137040;27;20206;-60
2023/08/27 10:42:05;;;;;;;0.60;0.60;;;;;20.60;95466.00;;;;5136307;27;20182;-60
2023/08/27 10:44:34;;;;;;;0.53;0.53;;;;;20.70;95472.00;;;;5136309;27;20194;-60
2023/08/27 10:47:09;;;;;;;0.63;0.63;;;;;20.60;95463.00;;;;5136202;27;20213;-60
2023/08/27 10:49:37;;;;;;;0.60;0.50;;;;;20.50;95458.00;;;;5137050;27;20606;-60
2023/08/27 10:52:16;;;;;;;1.00;1.00;;;;;20.70;95463.00;;;;5136035;27;20240;-60
2023/08/27 10:54:43;;;;;;;0.60;0.60;;;;;20.30;95460.00;;;;5136166;27;20278;-60
2023/08/27 10:57:18;;;;;;;0.50;0.50;;;;;20.30;95450.00;;;;5134601;27;20700;-60
2023/08/27 10:59:46;;;;;;;0.70;0.70;;;;;20.80;95453.00;;;;5135995;27;20284;-60
2023/08/27 11:02:16;;;;;;;0.50;0.50;;;;;20.90;95468.00;;;;5136277;27;20193;-60
2023/08/27 11:04:47;;;;;;;0.70;0.70;;;;;20.80;95475.00;;;;5135744;27;20567;-59
2023/08/27 11:07:15;;;;;;;0.57;0.57;;;;;20.60;95465.00;;;;5136018;27;20231;-59
2023/08/27 11:09:47;;;;;;;0.50;0.50;;;;;20.80;95461.00;;;;5136048;27;20258;-59
2023/08/27 11:12:23;;;;;;;0.73;0.73;;;;;20.80;95464.00;;;;5136769;27;20266;-59
2023/08/27 11:14:52;;;;;;;0.50;0.50;;;;;20.90;95463.00;;;;5136366;27;20695;-59
2023/08/27 11:17:28;;;;;;;3.10;1.03;;;;;20.90;95464.00;;;;5135837;27;20749;-59
2023/08/27 11:19:57;;;;;;;0.70;0.70;;;;;20.60;95460.00;;;;5135748;27;20195;-59
2023/08/27 11:22:25;;;;;;;0.90;0.90;;;;;20.50;95454.00;;;;5135861;27;20573;-60
2023/08/27 11:24:54;;;;;;;0.40;0.40;;;;;20.90;95418.00;;;;5135443;27;20216;-60
2023/08/27 11:27:23;;;;;;;0.50;0.50;;;;;20.90;95435.00;;;;5135436;27;20608;-61
2023/08/27 11:29:53;;;;;;;0.80;0.80;;;;;21.60;95430.00;;;;5135727;27;20645;-60
2023/08/27 11:32:21;;;;;;;0.47;0.47;;;;;22.00;95420.00;;;;5135786;27;20271;-59
2023/08/27 11:34:51;;;;;;;5.35;1.00;;;;;22.60;95431.00;;;;5134459;27;20553;-59
2023/08/27 11:37:20;;;;;;;0.85;0.85;;;;;22.10;95433.00;;;;5135284;27;20251;-59
2023/08/27 11:39:48;;;;;;;0.40;0.40;;;;;22.70;95423.00;;;;5135556;27;20220;-60
2023/08/27 11:42:18;;;;;;;0.60;0.60;;;;;23.50;95423.00;;;;5135461;27;20194;-60
2023/08/27 11:44:51;;;;;;;0.52;0.52;;;;;23.40;95424.00;;;;5135232;27;20215;-60
2023/08/27 11:47:20;;;;;;;0.65;0.65;;;;;23.90;95435.00;;;;5134272;27;20213;-60
2023/08/27 11:49:48;;;;;;;0.75;0.75;;;;;24.00;95445.00;;;;5135300;27;20216;-60
2023/08/27 11:52:15;;;;;;;0.60;0.60;;;;;23.90;95443.00;;;;5134983;27;20221;-61
2023/08/27 11:54:46;;;;;;;0.50;0.50;;;;;23.50;95436.00;;;;5135005;27;20584;-61
2023/08/27 11:57:14;;;;;;;1.33;1.23;;;;;23.20;95431.00;;;;5134874;27;20215;-60
2023/08/27 11:59:42;;;;;;;0.55;0.55;;;;;23.40;95434.00;;;;5134957;27;20683;-60
2023/08/27 12:02:11;;;;;;;0.57;0.57;;;;;23.60;95431.00;;;;5134948;27;20196;-60
2023/08/27 12:04:41;;;;;;;0.52;0.52;;;;;23.50;95426.00;;;;5134755;27;20197;-60
2023/08/27 12:07:09;;;;;;;0.50;0.50;;;;;23.60;95435.00;;;;5134630;27;20288;-60
2023/08/27 12:09:36;;;;;;;0.52;0.52;;;;;24.00;95428.00;;;;5134735;27;20224;-60
2023/08/27 12:12:07;;;;;;;1.30;0.55;;;;;24.20;95424.00;;;;5134557;27;20216;-60
2023/08/27 12:14:36;;;;;;;1.63;0.63;;;;;24.20;95412.00;;;;5134924;27;20660;-60
2023/08/27 12:17:07;;;;;;;0.60;0.60;;;;;23.90;95413.00;;;;5134810;27;20575;-60
2023/08/27 12:19:36;;;;;;;0.70;0.65;;;;;23.70;95415.00;;;;5134867;27;20181;-60
2023/08/27 12:22:04;;;;;;;0.65;0.65;;;;;24.20;95412.00;;;;5134525;27;20209;-61
2023/08/27 12:24:34;;;;;;;0.60;0.60;;;;;24.40;95415.00;;;;5134517;27;20217;-61